| Date | Time | Temp. (oF) | Dew Point (oF) | Rel. Hum. (%) | Press. (in.) | Wind Dir. | Wind Speed (mph) | Hourly Rainfall (in.) |
|
|---|---|---|---|---|---|---|---|---|---|
| 1 | 07/23 | 00:00 | 68 | 53 | 61 | 29.87 | WSW | 0 | 0.00 |
| 2 | 07/22 | 23:00 | 70 | 52 | 54 | 29.84 | N | 0 | 0.00 |
| 3 | 07/22 | 22:00 | 71 | 51 | 50 | 29.83 | WNW | 0 | 0.00 |
| 4 | 07/22 | 21:00 | 73 | 50 | 46 | 29.81 | NW | 3 | 0.00 |
| 5 | 07/22 | 20:00 | 77 | 50 | 40 | 29.79 | WNW | 0 | 0.00 |
| 6 | 07/22 | 19:00 | 80 | 51 | 37 | 29.77 | NNE | 3 | 0.00 |
| 7 | 07/22 | 18:00 | 80 | 52 | 39 | 29.76 | W | 6 | 0.00 |
| 8 | 07/22 | 17:00 | 82 | 54 | 39 | 29.75 | WNW | 6 | 0.00 |
| 9 | 07/22 | 16:00 | 82 | 55 | 40 | 29.75 | W | 7 | 0.00 |
| 10 | 07/22 | 15:00 | 82 | 55 | 41 | 29.76 | W | 8 | 0.00 |
| 11 | 07/22 | 14:00 | 81 | 56 | 43 | 29.76 | WSW | 5 | 0.00 |
| 12 | 07/22 | 13:00 | 79 | 55 | 45 | 29.78 | W | 0 | 0.00 |
| 13 | 07/22 | 12:00 | 79 | 56 | 46 | 29.78 | N | 3 | 0.00 |
| 14 | 07/22 | 11:00 | 77 | 56 | 49 | 29.79 | NNE | 10 | 0.00 |
| 15 | 07/22 | 10:00 | 75 | 54 | 50 | 29.78 | WNW | 4 | 0.00 |
| 16 | 07/22 | 09:00 | 72 | 55 | 57 | 29.78 | NNE | 5 | 0.00 |
| 17 | 07/22 | 08:00 | 68 | 56 | 67 | 29.77 | W | 1 | 0.00 |
| 18 | 07/22 | 07:00 | 65 | 55 | 71 | 29.76 | WNW | 3 | 0.00 |
| 19 | 07/22 | 06:00 | 63 | 54 | 75 | 29.74 | N | 3 | 0.00 |
| 20 | 07/22 | 05:00 | 63 | 55 | 77 | 29.73 | SW | 0 | 0.00 |
| 21 | 07/22 | 04:00 | 66 | 57 | 73 | 29.71 | WSW | 0 | 0.00 |
| 22 | 07/22 | 03:00 | 67 | 59 | 77 | 29.71 | SW | 2 | 0.00 |
| 23 | 07/22 | 02:00 | 69 | 61 | 76 | 29.69 | NE | 5 | 0.00 |
| 24 | 07/22 | 01:00 | 69 | 63 | 82 | 29.68 | W | 3 | 0.00 |